Pleasantville, Ohio
Current Conditions -  °F | °C
As of 9:53 AM on Friday 28 Nov 2014 (Local Time) from KLHQ Reporting Station
Overcast Overcast  
Wind Chill: 20°   Ceiling: 10000
Heat Index: 27°   Visibility: 8mi
Dew Point: 20°   Wind: 6mph
Humidity: 75%   Direction: 260°W
Pressure: 30.39"   Gusts: NA
Location:  39.81°N, 82.52°W
Report Text: KLHQ 281453Z AUTO 26005KT 8SM OVC100 M03/M07 A3039 RMK AO2 SLP303 I3000 T10281067 53001
Loading
Personal Weather Stations






























Interactive Weather Map New forecast layout! Learn more

10-Day Weather Forecast

Advertisements
Track Severe Weather on mobile